Time;durP1;ratioP1;P1;durP2;ratioP2;P2;SDS_P1;SDS_P2;PMS_P1;PMS_P2;Temp;Humidity;BMP_temperature;BMP_pressure;BME280_temperature;BME280_humidity;BME280_pressure;Samples;Min_cycle;Max_cycle;Signal;HPM_P1;HPM_P2
2021/09/28 00:00:34;;;;;;;5.78;4.42;;;;;;;23.41;58.26;101024.23;1811565;78;21119;-58
2021/09/28 00:03:02;;;;;;;6.85;4.42;;;;;;;23.41;58.27;101024.23;1803109;78;21023;-58
2021/09/28 00:05:28;;;;;;;5.50;4.25;;;;;;;23.42;58.38;101019.74;1813881;77;21330;-58
2021/09/28 00:07:54;;;;;;;6.22;4.60;;;;;;;23.43;58.51;101021.38;1810022;77;20970;-58
2021/09/28 00:10:21;;;;;;;6.55;4.37;;;;;;;23.47;58.63;101025.69;1814874;77;21046;-58
2021/09/28 00:12:47;;;;;;;7.03;4.70;;;;;;;23.49;58.73;101025.62;1829077;77;21777;-58
2021/09/28 00:15:14;;;;;;;5.97;4.17;;;;;;;23.51;58.77;101024.70;1828249;77;20894;-58
2021/09/28 00:17:40;;;;;;;6.60;4.40;;;;;;;23.54;58.72;101017.69;1832942;77;21186;-58
2021/09/28 00:20:07;;;;;;;8.43;5.25;;;;;;;23.55;58.66;101027.05;1820855;77;20984;-58
2021/09/28 00:22:34;;;;;;;5.87;4.28;;;;;;;23.57;58.63;101021.17;1834906;77;21081;-58
2021/09/28 00:25:00;;;;;;;6.25;4.75;;;;;;;23.58;58.53;101025.02;1833655;77;20957;-58
2021/09/28 00:27:26;;;;;;;6.42;4.55;;;;;;;23.58;58.48;101023.63;1823023;77;20890;-58
2021/09/28 00:29:52;;;;;;;6.70;4.50;;;;;;;23.58;58.42;101031.97;1827523;77;21360;-58
2021/09/28 00:32:18;;;;;;;7.33;4.22;;;;;;;23.57;58.40;101033.67;1819667;77;21050;-58
2021/09/28 00:34:45;;;;;;;5.85;4.78;;;;;;;23.55;58.37;101035.98;1820889;77;21128;-58
2021/09/28 00:37:12;;;;;;;9.08;4.42;;;;;;;23.53;58.35;101030.75;1801383;77;21960;-58
2021/09/28 00:39:38;;;;;;;6.62;4.65;;;;;;;23.51;58.33;101027.48;1825818;77;21066;-58
2021/09/28 00:42:05;;;;;;;7.15;3.98;;;;;;;23.50;58.35;101030.61;1827096;77;21280;-58
2021/09/28 00:44:43;;;;;;;6.70;3.80;;;;;;;23.48;58.35;101023.98;1825953;77;21440;-58
2021/09/28 00:47:11;;;;;;;5.97;4.22;;;;;;;23.45;58.35;101032.98;1827398;77;21045;-57
2021/09/28 00:49:47;;;;;;;6.35;4.25;;;;;;;23.43;58.37;101029.71;1816410;77;21022;-57
2021/09/28 00:52:16;;;;;;;7.25;4.78;;;;;;;23.43;58.39;101029.71;1828369;77;21092;-57
2021/09/28 00:54:44;;;;;;;6.73;4.47;;;;;;;23.39;58.41;101027.89;1817620;77;21126;-57
2021/09/28 00:57:10;;;;;;;5.50;4.28;;;;;;;23.39;58.47;101025.94;1819759;77;20929;-57
2021/09/28 00:59:38;;;;;;;6.22;4.37;;;;;;;23.42;58.55;101025.86;1826045;77;20966;-57
2021/09/28 01:02:06;;;;;;;4.85;3.83;;;;;;;23.43;58.69;101026.94;1830451;77;21009;-57
2021/09/28 01:04:32;;;;;;;7.00;4.55;;;;;;;23.44;58.82;101030.53;1826507;77;21138;-57
2021/09/28 01:06:59;;;;;;;6.85;4.03;;;;;;;23.45;58.85;101030.78;1819028;77;21672;-57
2021/09/28 01:09:25;;;;;;;5.90;4.15;;;;;;;23.47;58.87;101032.63;1826730;77;21475;-56
2021/09/28 01:11:52;;;;;;;5.60;4.05;;;;;;;23.49;58.82;101038.69;1817458;77;21316;-57
2021/09/28 01:14:18;;;;;;;6.70;4.05;;;;;;;23.50;58.78;101033.38;1822939;77;21016;-57
2021/09/28 01:16:44;;;;;;;7.03;4.85;;;;;;;23.50;58.72;101031.42;1827622;77;21473;-57
2021/09/28 01:19:10;;;;;;;6.80;4.17;;;;;;;23.50;58.70;101031.42;1821323;77;21160;-57
2021/09/28 01:21:38;;;;;;;5.37;4.12;;;;;;;23.49;58.66;101025.62;1801682;77;20994;-56
2021/09/28 01:24:06;;;;;;;6.17;4.33;;;;;;;23.48;58.62;101015.66;1825331;77;21824;-57
2021/09/28 01:26:32;;;;;;;5.97;4.42;;;;;;;23.48;58.61;101019.00;1822933;77;21034;-57
2021/09/28 01:29:02;;;;;;;5.87;4.40;;;;;;;23.46;58.60;101016.58;1825499;77;21034;-57
2021/09/28 01:31:28;;;;;;;6.20;4.65;;;;;;;23.44;58.59;101017.46;1825418;77;21418;-57
2021/09/28 01:33:54;;;;;;;5.65;4.03;;;;;;;23.42;58.58;101014.19;1818116;77;21007;-56
2021/09/28 01:36:20;;;;;;;5.92;4.05;;;;;;;23.40;58.60;101011.48;1825973;77;21010;-57
2021/09/28 01:38:46;;;;;;;5.67;4.08;;;;;;;23.38;58.61;101015.97;1831352;77;21037;-56
2021/09/28 01:41:12;;;;;;;6.08;4.40;;;;;;;23.36;58.64;101013.30;1819127;77;21889;-57
2021/09/28 01:43:38;;;;;;;5.53;4.10;;;;;;;23.35;58.64;101015.82;1824263;77;21215;-57
2021/09/28 01:46:05;;;;;;;6.40;4.10;;;;;;;23.36;58.69;101016.89;1827092;77;21482;-57
2021/09/28 01:48:48;;;;;;;4.92;4.10;;;;;;;23.36;58.76;101014.11;1827293;77;21046;-57
2021/09/28 01:51:14;;;;;;;5.28;4.12;;;;;;;23.39;58.88;101020.38;1819997;77;21554;-56
2021/09/28 01:53:40;;;;;;;6.12;4.03;;;;;;;23.40;59.00;101013.69;1824088;77;20997;-57
2021/09/28 01:56:06;;;;;;;5.75;4.28;;;;;;;23.42;59.04;101017.53;1823180;77;21619;-57
2021/09/28 01:58:35;;;;;;;5.53;4.12;;;;;;;23.43;59.05;101010.81;1824748;77;20835;-56
2021/09/28 02:01:02;;;;;;;4.83;3.62;;;;;;;23.45;58.99;101014.12;1820937;77;21036;-57
2021/09/28 02:03:28;;;;;;;6.87;4.15;;;;;;;23.45;58.93;101019.10;1816825;77;21077;-57
2021/09/28 02:05:54;;;;;;;5.28;4.20;;;;;;;23.46;58.88;101022.12;1828798;77;21072;-57
2021/09/28 02:08:20;;;;;;;5.03;3.95;;;;;;;23.46;58.83;101015.75;1820589;77;21425;-57
2021/09/28 02:10:46;;;;;;;5.87;4.15;;;;;;;23.46;58.81;101019.92;1826286;77;20870;-57
2021/09/28 02:13:14;;;;;;;5.15;4.22;;;;;;;23.44;58.77;101016.08;1831768;77;21835;-57
2021/09/28 02:15:40;;;;;;;5.80;4.20;;;;;;;23.44;58.75;101018.03;1827432;77;22071;-56
2021/09/28 02:18:07;;;;;;;6.65;4.30;;;;;;;23.41;58.73;101013.94;1822086;77;21003;-56
2021/09/28 02:20:33;;;;;;;4.50;3.98;;;;;;;23.40;58.73;101012.30;1824773;77;21059;-57
2021/09/28 02:22:59;;;;;;;7.67;4.22;;;;;;;23.38;58.74;101008.23;1829664;77;21698;-56
2021/09/28 02:25:25;;;;;;;6.45;4.47;;;;;;;23.36;58.75;101010.52;1826528;77;20913;-57
2021/09/28 02:27:51;;;;;;;6.35;4.25;;;;;;;23.34;58.75;101011.44;1821244;77;21053;-57
2021/09/28 02:30:18;;;;;;;5.25;3.92;;;;;;;23.32;58.79;101012.33;1826612;77;21851;-57
2021/09/28 02:32:44;;;;;;;5.97;4.28;;;;;;;23.32;58.82;101007.59;1828754;77;21281;-56
2021/09/28 02:35:10;;;;;;;5.03;3.83;;;;;;;23.34;58.90;101015.00;1797021;77;21701;-57
2021/09/28 02:37:36;;;;;;;5.08;3.50;;;;;;;23.34;59.00;101009.45;1796743;79;20958;-57
2021/09/28 02:40:04;;;;;;;5.42;4.10;;;;;;;23.36;59.12;101012.73;1798158;78;20971;-57
2021/09/28 02:42:30;;;;;;;5.87;4.10;;;;;;;23.38;59.16;101004.86;1798588;78;21097;-57
2021/09/28 02:44:56;;;;;;;5.85;4.60;;;;;;;23.39;59.16;101009.84;1801051;79;21914;-57
2021/09/28 02:47:24;;;;;;;5.92;4.35;;;;;;;23.40;59.13;101009.52;1794371;77;21074;-57
2021/09/28 02:49:50;;;;;;;5.85;4.20;;;;;;;23.42;59.08;101009.20;1783915;79;21156;-57
2021/09/28 02:52:16;;;;;;;5.40;4.42;;;;;;;23.42;59.02;101010.59;1786621;79;21443;-57
2021/09/28 02:54:42;;;;;;;6.40;4.42;;;;;;;23.42;59.00;101011.98;1801027;78;21003;-56
2021/09/28 02:57:09;;;;;;;4.85;4.03;;;;;;;23.41;58.94;101015.33;1794669;78;22075;-57
2021/09/28 02:59:35;;;;;;;6.08;4.67;;;;;;;23.40;58.93;101017.03;1767845;79;21111;-57
2021/09/28 03:02:02;;;;;;;5.85;4.08;;;;;;;23.38;58.90;101013.80;1794252;78;21042;-57
2021/09/28 03:04:29;;;;;;;6.92;4.45;;;;;;;23.36;58.90;101010.52;1795831;77;21009;-57
2021/09/28 03:06:55;;;;;;;6.12;4.45;;;;;;;23.35;58.90;101016.64;1787401;79;21014;-56
2021/09/28 03:09:21;;;;;;;6.05;4.00;;;;;;;23.33;58.86;101019.52;1791177;77;21786;-57
2021/09/28 03:11:47;;;;;;;6.90;4.20;;;;;;;23.30;58.90;101018.20;1791714;78;20880;-57
2021/09/28 03:14:13;;;;;;;5.75;4.20;;;;;;;23.30;58.90;101022.97;1793083;78;21144;-57
2021/09/28 03:16:39;;;;;;;6.00;4.10;;;;;;;23.27;58.92;101020.26;1797544;77;21041;-56
2021/09/28 03:19:06;;;;;;;8.35;3.62;;;;;;;23.28;58.95;101019.13;1798517;78;20979;-57
2021/09/28 03:21:32;;;;;;;6.28;4.03;;;;;;;23.29;59.03;101024.10;1795161;78;22049;-56
2021/09/28 03:23:58;;;;;;;6.47;3.90;;;;;;;23.31;59.16;101023.19;1769113;80;21034;-57
2021/09/28 03:26:25;;;;;;;5.67;3.85;;;;;;;23.33;59.26;101019.52;1799636;78;20866;-56
2021/09/28 03:28:52;;;;;;;5.03;4.10;;;;;;;23.33;59.33;101018.95;1800043;77;21038;-56
2021/09/28 03:31:18;;;;;;;6.40;4.22;;;;;;;23.35;59.31;101019.98;1796164;77;21146;-56
2021/09/28 03:33:45;;;;;;;5.55;3.92;;;;;;;23.37;59.26;101022.69;1799163;77;21274;-56
2021/09/28 03:36:11;;;;;;;4.55;3.65;;;;;;;23.37;59.25;101024.08;1825910;77;21000;-56
2021/09/28 03:38:37;;;;;;;4.28;3.47;;;;;;;23.38;59.17;101022.12;1812438;78;21064;-56
2021/09/28 03:41:03;;;;;;;5.12;3.92;;;;;;;23.38;59.14;101019.34;1821300;77;21620;-56
2021/09/28 03:43:29;;;;;;;7.10;3.75;;;;;;;23.37;59.08;101022.69;1818394;77;21101;-57
2021/09/28 03:45:55;;;;;;;4.80;3.52;;;;;;;23.36;59.04;101018.28;1826632;77;21357;-57
2021/09/28 03:48:22;;;;;;;5.22;3.65;;;;;;;23.35;59.02;101015.25;1828757;77;21079;-57
2021/09/28 03:50:48;;;;;;;6.17;4.00;;;;;;;23.34;58.99;101008.66;1829984;77;20986;-57
2021/09/28 03:53:15;;;;;;;5.22;3.65;;;;;;;23.31;59.00;101005.95;1827672;77;21053;-57
2021/09/28 03:55:41;;;;;;;4.97;3.83;;;;;;;23.30;58.98;101009.09;1830378;77;21542;-57
2021/09/28 03:58:08;;;;;;;5.37;4.17;;;;;;;23.29;58.99;101011.61;1824535;77;21230;-58
2021/09/28 04:00:36;;;;;;;6.28;3.80;;;;;;;23.26;59.03;101010.86;1822827;77;21482;-58
2021/09/28 04:03:06;;;;;;;7.20;3.77;;;;;;;23.27;59.06;101019.44;1826574;77;20943;-55
2021/09/28 04:05:33;;;;;;;9.08;3.80;;;;;;;23.29;59.15;101025.48;1818085;77;21045;-54
2021/09/28 04:07:59;;;;;;;7.97;4.60;;;;;;;23.30;59.28;101032.08;1831049;76;21045;-56
2021/09/28 04:10:25;;;;;;;17.02;6.30;;;;;;;23.32;59.36;101024.82;1832994;77;21274;-54
2021/09/28 04:12:51;;;;;;;45.73;15.38;;;;;;;23.33;59.42;101026.45;1831017;77;21052;-59
2021/09/28 04:15:21;;;;;;;19.65;7.17;;;;;;;23.35;59.41;101023.58;1813687;77;21001;-54
2021/09/28 04:17:46;;;;;;;12.70;5.72;;;;;;;23.38;59.38;101028.47;1809973;77;21017;-55
2021/09/28 04:20:12;;;;;;;9.18;4.30;;;;;;;23.40;59.35;101028.14;1821532;77;21022;-55
2021/09/28 04:22:38;;;;;;;8.13;4.40;;;;;;;23.40;59.30;101034.52;1822714;77;21058;-56
2021/09/28 04:25:06;;;;;;;8.23;4.83;;;;;;;23.41;59.27;101032.55;1825334;77;20897;-58
2021/09/28 04:27:32;;;;;;;8.75;4.17;;;;;;;23.41;59.23;101032.55;1820753;77;21056;-55
2021/09/28 04:29:59;;;;;;;5.37;3.60;;;;;;;23.40;59.20;101027.58;1782183;79;21062;-56
2021/09/28 04:32:25;;;;;;;4.03;3.20;;;;;;;23.40;59.18;101037.86;1753002;81;21081;-56
2021/09/28 04:34:51;;;;;;;7.50;3.22;;;;;;;23.38;59.18;101032.63;1759182;80;22122;-56
2021/09/28 04:37:17;;;;;;;5.15;3.60;;;;;;;23.36;59.19;101027.17;1747986;80;20922;-56
2021/09/28 04:39:43;;;;;;;5.70;4.10;;;;;;;23.35;59.19;101031.09;1736853;80;21465;-56
2021/09/28 04:42:09;;;;;;;6.05;3.30;;;;;;;23.32;59.19;101032.58;1731252;80;21030;-56
2021/09/28 04:44:35;;;;;;;5.37;3.30;;;;;;;23.31;59.20;101037.06;1740406;79;21601;-57
2021/09/28 04:47:01;;;;;;;3.58;3.02;;;;;;;23.32;59.21;101045.64;1765548;79;21171;-57
2021/09/28 04:49:27;;;;;;;10.23;3.12;;;;;;;23.32;59.30;101045.08;1752747;80;21014;-57
2021/09/28 04:51:53;;;;;;;81.22;22.00;;;;;;;23.34;59.41;101050.31;1746741;80;21028;-58
2021/09/28 04:54:19;;;;;;;30.08;8.75;;;;;;;23.35;59.52;101041.63;1746810;80;20910;-57
2021/09/28 04:56:45;;;;;;;30.68;10.38;;;;;;;23.38;59.59;101048.50;1752660;80;21030;-57
2021/09/28 04:59:11;;;;;;;22.27;6.90;;;;;;;23.41;59.58;101039.50;1745552;80;21272;-58
2021/09/28 05:01:37;;;;;;;16.80;6.55;;;;;;;23.43;59.58;101039.43;1751230;80;21457;-59
2021/09/28 05:04:24;;;;;;;13.88;4.42;;;;;;;23.45;59.50;101039.11;1746499;80;21001;-58
2021/09/28 05:06:50;;;;;;;14.30;5.85;;;;;;;23.47;59.45;101036.80;1720902;81;21057;-56
2021/09/28 05:09:16;;;;;;;11.75;4.47;;;;;;;23.48;59.36;101037.87;1719913;82;21086;-57
2021/09/28 05:11:42;;;;;;;7.37;3.45;;;;;;;23.47;59.33;101031.25;1723747;82;21271;-54
2021/09/28 05:14:08;;;;;;;9.80;4.37;;;;;;;23.46;59.31;101033.23;1718770;82;20962;-55
2021/09/28 05:16:34;;;;;;;46.80;19.00;;;;;;;23.46;59.28;101030.45;1716214;81;21717;-56
2021/09/28 05:19:01;;;;;;;8.15;4.00;;;;;;;23.45;59.27;101026.05;1716831;82;21052;-56
2021/09/28 05:21:27;;;;;;;6.62;3.50;;;;;;;23.44;59.25;101022.20;1722044;82;21114;-56
2021/09/28 05:23:53;;;;;;;7.85;3.45;;;;;;;23.42;59.27;101023.09;1722767;81;21311;-56
2021/09/28 05:26:19;;;;;;;10.43;4.10;;;;;;;23.41;59.23;101030.60;1711930;82;21051;-58
2021/09/28 05:28:46;;;;;;;6.10;3.35;;;;;;;23.39;59.25;101028.71;1712900;82;21055;-56
2021/09/28 05:31:13;;;;;;;8.05;3.08;;;;;;;23.37;59.25;101037.96;1688752;83;21406;-56
2021/09/28 05:33:40;;;;;;;5.55;2.87;;;;;;;23.38;59.28;101036.80;1697652;83;21100;-56
2021/09/28 05:36:07;;;;;;;9.68;3.62;;;;;;;23.39;59.37;101039.81;1717307;82;21585;-56
2021/09/28 05:38:33;;;;;;;8.93;3.90;;;;;;;23.41;59.50;101047.26;1711752;82;21520;-56
2021/09/28 05:41:03;;;;;;;11.43;4.70;;;;;;;23.44;59.61;101045.80;1712459;82;21121;-56
2021/09/28 05:43:28;;;;;;;10.63;4.42;;;;;;;23.44;59.67;101048.01;1714703;82;21080;-56
2021/09/28 05:45:54;;;;;;;10.95;4.50;;;;;;;23.48;59.64;101050.94;1713696;82;21498;-56
2021/09/28 05:48:20;;;;;;;10.80;4.95;;;;;;;23.49;59.62;101052.58;1711269;82;21243;-56
2021/09/28 05:50:46;;;;;;;15.90;5.08;;;;;;;23.50;59.57;101055.59;1713431;82;21666;-55
2021/09/28 05:53:12;;;;;;;17.07;5.58;;;;;;;23.51;59.50;101066.36;1706662;83;21114;-56
2021/09/28 05:55:39;;;;;;;11.30;5.45;;;;;;;23.51;59.48;101064.15;1707994;82;21324;-56
2021/09/28 05:58:05;;;;;;;13.35;5.25;;;;;;;23.50;59.42;101074.47;1710089;83;21433;-56
2021/09/28 06:00:31;;;;;;;13.03;5.80;;;;;;;23.50;59.40;101079.20;1714561;82;21154;-56
2021/09/28 06:02:57;;;;;;;13.10;5.15;;;;;;;23.48;59.38;101080.09;1707835;83;21544;-56
2021/09/28 06:05:24;;;;;;;13.38;5.35;;;;;;;23.46;59.37;101086.00;1718695;80;21067;-56
2021/09/28 06:07:50;;;;;;;13.58;5.37;;;;;;;23.44;59.34;101090.23;1738570;80;21042;-56
2021/09/28 06:10:17;;;;;;;12.25;5.70;;;;;;;23.43;59.35;101096.35;1736727;80;21061;-56
2021/09/28 06:12:43;;;;;;;17.48;5.65;;;;;;;23.41;59.35;101095.03;1738577;80;21193;-56
2021/09/28 06:15:10;;;;;;;15.15;5.45;;;;;;;23.39;59.37;101101.47;1729287;81;21079;-56
2021/09/28 06:17:36;;;;;;;13.48;5.20;;;;;;;23.40;59.37;101095.60;1749258;80;21123;-56
2021/09/28 06:20:04;;;;;;;15.03;5.40;;;;;;;23.41;59.44;101098.63;1741796;80;21623;-56
2021/09/28 06:22:30;;;;;;;14.63;5.53;;;;;;;23.43;59.58;101097.74;1746071;80;21124;-55
2021/09/28 06:24:56;;;;;;;15.25;6.03;;;;;;;23.46;59.65;101093.51;1747291;80;22079;-56
2021/09/28 06:27:23;;;;;;;12.03;4.97;;;;;;;23.48;59.72;101105.91;1748677;80;21029;-56
2021/09/28 06:29:50;;;;;;;15.38;5.90;;;;;;;23.50;59.75;101106.41;1745034;80;21006;-56
2021/09/28 06:32:18;;;;;;;15.78;6.37;;;;;;;23.52;59.71;101102.70;1737802;80;21050;-55
2021/09/28 06:34:45;;;;;;;14.28;5.95;;;;;;;23.55;59.62;101103.42;1740406;80;21111;-53
2021/09/28 06:37:12;;;;;;;14.30;6.22;;;;;;;23.57;59.52;101101.15;1750735;80;21565;-56
2021/09/28 06:39:38;;;;;;;14.65;5.55;;;;;;;23.58;59.45;101107.53;1746745;80;21417;-56
2021/09/28 06:42:05;;;;;;;16.70;5.62;;;;;;;23.58;59.38;101108.91;1745514;80;21027;-57
2021/09/28 06:44:31;;;;;;;15.55;5.40;;;;;;;23.56;59.32;101109.23;1744761;80;22107;-56
2021/09/28 06:46:57;;;;;;;15.00;6.05;;;;;;;23.56;59.30;101118.13;1739832;80;20902;-56
2021/09/28 06:49:23;;;;;;;14.15;5.40;;;;;;;23.54;59.26;101120.44;1727151;80;21267;-57
2021/09/28 06:51:49;;;;;;;13.98;5.50;;;;;;;23.53;59.24;101124.36;1742682;80;20973;-57
2021/09/28 06:54:15;;;;;;;10.08;5.33;;;;;;;23.50;59.20;101113.34;1739015;80;21487;-56
2021/09/28 06:56:41;;;;;;;13.65;6.45;;;;;;;23.48;59.21;101123.95;1735862;80;20893;-57
2021/09/28 06:59:10;;;;;;;15.13;5.70;;;;;;;23.47;59.21;101122.89;1686039;83;21012;-56
2021/09/28 07:01:39;;;;;;;16.20;5.53;;;;;;;23.44;59.21;101122.16;1690041;83;21795;-57
2021/09/28 07:04:05;;;;;;;12.40;5.50;;;;;;;23.42;59.24;101125.26;1671275;83;21097;-57
2021/09/28 07:06:31;;;;;;;13.55;5.37;;;;;;;23.43;59.26;101129.67;1700905;82;21128;-57
2021/09/28 07:08:57;;;;;;;11.30;4.90;;;;;;;23.45;59.34;101130.75;1695313;83;21135;-57
2021/09/28 07:11:23;;;;;;;12.82;5.03;;;;;;;23.46;59.47;101131.81;1681901;83;21161;-57
2021/09/28 07:13:50;;;;;;;14.55;5.33;;;;;;;23.48;59.58;101137.84;1680107;83;21717;-57
2021/09/28 07:16:16;;;;;;;11.65;4.58;;;;;;;23.51;59.67;101136.36;1686497;83;21047;-56
2021/09/28 07:18:42;;;;;;;9.30;4.33;;;;;;;23.53;59.68;101134.08;1700534;82;21984;-56
2021/09/28 07:21:09;;;;;;;14.47;5.00;;;;;;;23.55;59.66;101140.13;1706311;83;21874;-57
2021/09/28 07:23:37;;;;;;;14.05;5.62;;;;;;;23.57;59.61;101137.83;1703969;83;36654;-57
2021/09/28 07:26:03;;;;;;;14.68;5.55;;;;;;;23.59;59.54;101138.33;1700219;83;21100;-56
2021/09/28 07:28:30;;;;;;;9.20;4.70;;;;;;;23.59;59.47;101139.12;1700891;83;21064;-56
2021/09/28 07:30:56;;;;;;;13.50;4.85;;;;;;;23.59;59.41;101143.28;1706997;82;21148;-57
2021/09/28 07:33:22;;;;;;;8.85;4.40;;;;;;;23.58;59.36;101140.86;1696453;82;21000;-57
2021/09/28 07:35:48;;;;;;;10.32;4.78;;;;;;;23.57;59.34;101143.38;1704883;82;20997;-57
2021/09/28 07:38:15;;;;;;;10.13;4.58;;;;;;;23.56;59.32;101152.85;1638111;86;21266;-57
2021/09/28 07:40:45;;;;;;;12.10;4.80;;;;;;;23.54;59.29;101157.37;1741912;80;21034;-57
2021/09/28 07:43:11;;;;;;;12.98;4.45;;;;;;;23.53;59.27;101159.89;1739282;80;21080;-57
2021/09/28 07:45:37;;;;;;;9.95;5.00;;;;;;;23.50;59.28;101155.58;1679510;83;21060;-56
2021/09/28 07:48:04;;;;;;;12.23;5.05;;;;;;;23.48;59.28;101158.67;1703599;83;20882;-56
2021/09/28 07:50:30;;;;;;;9.20;4.20;;;;;;;23.45;59.27;101152.39;1699357;83;21624;-56
2021/09/28 07:52:57;;;;;;;9.03;4.00;;;;;;;23.43;59.31;101159.37;1741321;80;20899;-56
2021/09/28 07:55:24;;;;;;;9.35;3.95;;;;;;;23.44;59.32;101162.42;1734359;80;20937;-57
2021/09/28 07:57:50;;;;;;;10.38;4.28;;;;;;;23.44;59.40;101164.64;1731174;80;21048;-57
2021/09/28 08:00:17;;;;;;;9.40;4.08;;;;;;;23.45;59.50;101167.66;1701496;83;21131;-56
2021/09/28 08:02:43;;;;;;;12.40;5.17;;;;;;;23.45;59.60;101171.83;1718362;81;21297;-57
2021/09/28 08:05:10;;;;;;;9.88;4.05;;;;;;;23.48;59.64;101173.13;1681500;83;21160;-56
2021/09/28 08:07:39;;;;;;;12.13;4.60;;;;;;;23.49;59.63;101163.66;1712142;82;21107;-56
2021/09/28 08:10:10;;;;;;;10.15;4.90;;;;;;;23.50;59.60;101163.34;1679570;84;21568;-57
2021/09/28 08:12:36;;;;;;;9.93;3.92;;;;;;;23.51;59.54;101164.12;1703424;83;21066;-56
2021/09/28 08:15:03;;;;;;;9.83;4.33;;;;;;;23.51;59.48;101168.30;1702539;82;22015;-57
2021/09/28 08:17:29;;;;;;;8.53;4.55;;;;;;;23.51;59.42;101169.11;1684926;83;21060;-56
2021/09/28 08:19:55;;;;;;;7.85;3.85;;;;;;;23.50;59.38;101165.30;1690964;83;21152;-56
2021/09/28 08:22:21;;;;;;;11.40;4.70;;;;;;;23.49;59.36;101169.20;1682933;83;21200;-57
2021/09/28 08:24:51;;;;;;;8.48;4.45;;;;;;;23.47;59.32;101167.31;1743534;80;21439;-57
2021/09/28 08:30:01;;;;;;;10.08;4.35;;;;;;;23.44;59.29;101162.42;1672997;83;21057;-56
2021/09/28 08:32:27;;;;;;;10.23;4.20;;;;;;;23.41;59.27;101159.72;1712797;82;21083;-56
2021/09/28 08:34:54;;;;;;;7.80;3.90;;;;;;;23.39;59.25;101155.62;1676389;84;21534;-56
2021/09/28 08:37:20;;;;;;;11.40;3.67;;;;;;;23.37;59.29;101157.92;1702321;83;20909;-56
2021/09/28 08:39:46;;;;;;;11.33;3.92;;;;;;;23.38;59.30;101158.17;1682134;83;21581;-56
2021/09/28 08:42:13;;;;;;;8.58;3.67;;;;;;;23.37;59.36;101150.98;1690043;83;21179;-56
2021/09/28 08:44:41;;;;;;;5.83;3.40;;;;;;;23.38;59.45;101157.58;1689998;83;21542;-56
2021/09/28 08:47:07;;;;;;;6.20;3.60;;;;;;;23.39;59.53;101157.00;1687009;83;21073;-56
2021/09/28 08:49:34;;;;;;;7.70;3.92;;;;;;;23.40;59.57;101160.86;1696946;83;21111;-55
2021/09/28 08:52:02;;;;;;;8.98;4.28;;;;;;;23.41;59.56;101158.33;1743949;80;21297;-55
2021/09/28 08:54:28;;;;;;;8.30;3.50;;;;;;;23.44;59.53;101156.88;1741081;80;21081;-55
2021/09/28 08:56:54;;;;;;;9.05;3.45;;;;;;;23.44;59.47;101164.64;1745486;80;20895;-54
2021/09/28 08:59:20;;;;;;;10.68;4.05;;;;;;;23.45;59.42;101172.41;1748169;80;20906;-54
2021/09/28 09:02:02;;;;;;;8.58;3.72;;;;;;;23.45;59.36;101172.41;1742920;80;21033;-54
2021/09/28 09:04:27;;;;;;;6.30;3.35;;;;;;;23.43;59.32;101171.33;1753310;80;21917;-56
2021/09/28 09:06:54;;;;;;;8.03;3.92;;;;;;;23.42;59.27;101180.80;1682447;83;21096;-55
2021/09/28 09:09:22;;;;;;;7.80;3.98;;;;;;;23.41;59.23;101183.89;1705595;83;21113;-55
2021/09/28 09:11:50;;;;;;;8.75;4.08;;;;;;;23.38;59.19;101186.73;1749215;80;21578;-55
2021/09/28 09:14:22;;;;;;;9.08;4.42;;;;;;;23.37;59.19;101185.13;1746890;80;21535;-56
2021/09/28 09:16:52;;;;;;;7.35;3.58;;;;;;;23.35;59.19;101186.00;1694203;83;21036;-56
2021/09/28 09:19:27;;;;;;;9.23;3.47;;;;;;;23.33;59.16;101185.53;1742636;80;21028;-56
2021/09/28 09:22:00;;;;;;;7.22;3.47;;;;;;;23.33;59.18;101190.27;1743989;80;20954;-53
2021/09/28 09:26:57;;;;;;;8.35;3.72;;;;;;;23.31;59.20;101187.80;1758912;79;21819;-49
2021/09/28 09:29:23;;;;;;;6.65;3.27;;;;;;;23.33;59.27;101191.08;1760606;80;21445;-49
2021/09/28 09:31:53;;;;;;;7.47;3.20;;;;;;;23.35;59.35;101183.80;1762524;80;20951;-50
2021/09/28 09:34:21;;;;;;;5.97;3.40;;;;;;;23.37;59.47;101183.73;1752030;80;21383;-49
2021/09/28 09:37:00;;;;;;;8.33;3.35;;;;;;;23.39;59.54;101182.81;1713300;82;21102;-49
2021/09/28 09:39:26;;;;;;;10.58;3.72;;;;;;;23.42;59.56;101191.08;1708599;82;21644;-50
2021/09/28 09:42:05;;;;;;;9.35;3.33;;;;;;;23.45;59.50;101185.72;1715590;82;21344;-49
2021/09/28 09:44:31;;;;;;;7.35;3.65;;;;;;;23.46;59.43;101190.13;1708522;82;21139;-50
2021/09/28 09:46:59;;;;;;;10.48;3.75;;;;;;;23.47;59.33;101193.13;1716315;82;21386;-51
2021/09/28 09:49:31;;;;;;;7.53;4.12;;;;;;;23.48;59.27;101192.00;1702302;82;21063;-51
2021/09/28 09:52:06;;;;;;;8.88;3.58;;;;;;;23.48;59.20;101195.34;1712646;82;21084;-50
2021/09/28 09:54:41;;;;;;;8.45;4.15;;;;;;;23.47;59.14;101187.58;1648830;85;21992;-52
2021/09/28 09:57:12;;;;;;;8.90;3.83;;;;;;;23.46;59.08;101191.52;1716086;83;21068;-52
2021/09/28 09:59:39;;;;;;;9.13;4.03;;;;;;;23.44;59.04;101192.97;1702291;82;21057;-50
2021/09/28 10:02:07;;;;;;;11.53;4.15;;;;;;;23.42;58.99;101203.01;1724433;82;21478;-51
2021/09/28 10:04:33;;;;;;;10.68;4.17;;;;;;;23.40;58.99;101204.46;1719411;82;21118;-48
2021/09/28 10:07:02;;;;;;;9.15;4.05;;;;;;;23.37;58.97;101203.73;1730317;82;21332;-48
2021/09/28 10:09:38;;;;;;;9.20;4.35;;;;;;;23.36;58.97;101203.48;1763082;79;21102;-51
2021/09/28 10:12:09;;;;;;;9.75;3.98;;;;;;;23.33;58.95;101211.09;1761773;80;21024;-49
2021/09/28 10:14:40;;;;;;;7.75;3.50;;;;;;;23.31;58.96;101211.41;1752212;80;21749;-52
2021/09/28 10:17:22;;;;;;;;;;;;;;;23.28;58.97;101214.02;1763545;80;21138;-49
2021/09/28 10:19:52;;;;;;;7.00;3.42;;;;;;;23.27;58.99;101220.70;1739685;80;20986;-48
2021/09/28 10:22:41;;;;;;;7.87;3.83;;;;;;;23.21;59.01;101217.30;1761814;80;21064;-51
2021/09/28 10:25:24;;;;;;;7.50;3.40;;;;;;;23.20;59.02;101226.76;1751820;80;22157;-50
2021/09/28 10:27:53;;;;;;;7.50;2.62;;;;;;;23.20;59.05;101219.81;1746985;81;21086;-51
2021/09/28 10:30:38;;;;;;;8.93;3.25;;;;;;;23.21;59.11;101223.63;1752243;81;21037;-50
2021/09/28 10:33:24;;;;;;;7.60;3.50;;;;;;;23.23;59.24;101227.48;1736345;81;21887;-51
2021/09/28 10:36:08;;;;;;;6.83;3.10;;;;;;;23.25;59.34;101224.39;1730790;81;21438;-52
2021/09/28 10:38:53;;;;;;;7.75;3.05;;;;;;;23.28;59.36;101225.12;1756726;80;21543;-47
2021/09/28 10:41:43;;;;;;;7.37;3.47;;;;;;;23.29;59.33;101223.98;1742962;81;21644;-48
2021/09/28 10:44:34;;;;;;;7.35;3.45;;;;;;;23.31;59.25;101228.06;1746459;81;21355;-49
2021/09/28 10:46:58;;;;;;;9.13;3.98;;;;;;;23.32;59.15;101228.88;1752104;81;21829;-49
2021/09/28 10:49:28;;;;;;;6.75;3.20;;;;;;;23.32;59.08;101219.98;1755431;80;21493;-48
2021/09/28 10:52:24;;;;;;;6.50;3.30;;;;;;;23.33;59.01;101224.97;1744231;80;21175;-52
2021/09/28 10:55:14;;;;;;;6.17;3.08;;;;;;;23.32;58.96;101221.94;1756779;81;21012;-49
2021/09/28 10:58:04;;;;;;;5.15;3.05;;;;;;;23.30;58.91;101224.24;1755038;81;21078;-48
2021/09/28 11:00:54;;;;;;;7.42;3.70;;;;;;;23.27;58.86;101216.55;1747669;81;21263;-50
2021/09/28 11:03:44;;;;;;;7.70;2.97;;;;;;;23.25;58.84;101223.01;1744652;81;21473;-49
2021/09/28 11:06:11;;;;;;;;;;;;;;;23.22;58.82;101225.28;1759804;81;21030;-46
2021/09/28 11:08:37;;;;;;;8.50;3.60;;;;;;;23.20;58.81;101224.80;1755884;81;20470;-50
2021/09/28 11:11:07;;;;;;;4.92;3.00;;;;;;;23.17;58.84;101226.00;1746457;80;21036;-50
2021/09/28 11:13:38;;;;;;;8.08;3.22;;;;;;;23.15;58.84;101229.69;1751078;81;21512;-47
2021/09/28 11:16:06;;;;;;;4.90;3.22;;;;;;;23.13;58.82;101220.28;1739979;81;22379;-51
2021/09/28 11:18:32;;;;;;;6.70;3.15;;;;;;;23.11;58.84;101226.75;1738085;81;21021;-48
2021/09/28 11:21:13;;;;;;;8.48;3.35;;;;;;;23.10;58.86;101222.89;1754337;81;21440;-48
2021/09/28 11:23:40;;;;;;;;;;;;;;;23.09;58.86;101216.52;1752936;80;21519;-47
2021/09/28 11:26:06;;;;;;;4.53;2.83;;;;;;;23.11;58.85;101216.21;1740273;80;21142;-50
2021/09/28 11:28:32;;;;;;;6.85;3.27;;;;;;;23.11;58.92;101215.64;1777605;79;20897;-50
2021/09/28 11:31:02;;;;;;;5.33;2.42;;;;;;;23.13;59.05;101211.95;1776231;79;20876;-52
2021/09/28 11:33:37;;;;;;;7.15;3.10;;;;;;;23.16;59.15;101214.11;1774867;79;21098;-49